createdAt,value
2019-02-14T00:00:29.910Z,3.90
2019-02-14T00:02:37.012Z,3.88
2019-02-14T00:04:44.062Z,3.86
2019-02-14T00:06:51.145Z,3.89
2019-02-14T00:08:58.246Z,3.90
2019-02-14T00:11:05.304Z,3.90
2019-02-14T00:13:12.498Z,3.91
2019-02-14T00:15:19.516Z,3.94
2019-02-14T00:17:26.727Z,3.91
2019-02-14T00:19:33.762Z,3.89
2019-02-14T00:21:40.824Z,3.89
2019-02-14T00:23:47.905Z,3.91
2019-02-14T00:25:54.983Z,3.93
2019-02-14T00:28:02.083Z,3.94
2019-02-14T00:30:09.238Z,3.93
2019-02-14T00:32:16.307Z,3.96
2019-02-14T00:34:23.352Z,3.91
2019-02-14T00:36:30.475Z,3.93
2019-02-14T00:38:37.566Z,3.93
2019-02-14T00:40:44.523Z,3.96
2019-02-14T00:42:51.604Z,3.99
2019-02-14T00:44:58.659Z,3.97
2019-02-14T00:47:06.270Z,3.98
2019-02-14T00:49:13.639Z,3.97
2019-02-14T00:51:21.070Z,3.94
2019-02-14T00:53:28.461Z,3.97
2019-02-14T00:55:35.578Z,3.97
2019-02-14T00:57:43.064Z,4.02
2019-02-14T00:59:50.473Z,3.98
2019-02-14T01:01:57.882Z,4.01
2019-02-14T01:04:05.264Z,4.00
2019-02-14T01:06:12.739Z,3.98
2019-02-14T01:08:20.376Z,3.95
2019-02-14T01:10:28.096Z,4.00
2019-02-14T01:12:35.550Z,3.99
2019-02-14T01:14:43.083Z,4.01
2019-02-14T01:16:50.428Z,3.97
2019-02-14T01:18:57.909Z,4.02
2019-02-14T01:21:05.508Z,4.01
2019-02-14T01:23:13.004Z,4.03
2019-02-14T01:25:20.519Z,4.01
2019-02-14T01:27:28.277Z,3.99
2019-02-14T01:29:35.973Z,3.99
2019-02-14T01:31:43.703Z,4.02
2019-02-14T01:33:51.211Z,4.00
2019-02-14T01:35:58.775Z,4.00
2019-02-14T01:38:06.628Z,3.98
2019-02-14T01:40:14.495Z,4.01
2019-02-14T01:42:22.154Z,3.99
2019-02-14T01:44:29.958Z,3.98
2019-02-14T01:46:37.403Z,3.96
2019-02-14T01:48:44.826Z,3.99
2019-02-14T01:50:52.303Z,4.00
2019-02-14T01:52:59.683Z,3.99
2019-02-14T01:55:07.109Z,4.01
2019-02-14T01:57:14.577Z,4.02
2019-02-14T01:59:22.047Z,4.03
2019-02-14T02:01:29.472Z,4.02
2019-02-14T02:03:36.858Z,4.02
2019-02-14T02:05:50.590Z,4.01
2019-02-14T02:07:53.574Z,3.98
2019-02-14T02:10:00.714Z,3.98
2019-02-14T02:12:07.747Z,4.01
2019-02-14T02:14:14.888Z,4.01
2019-02-14T02:16:21.892Z,4.00
2019-02-14T02:18:29.600Z,4.00
2019-02-14T02:20:36.650Z,3.98
2019-02-14T02:22:43.609Z,3.96
2019-02-14T02:24:50.731Z,3.95
2019-02-14T02:26:57.804Z,3.95
2019-02-14T02:29:04.848Z,3.90
2019-02-14T02:31:11.874Z,3.93
2019-02-14T02:33:18.969Z,3.92
2019-02-14T02:35:25.904Z,3.89
2019-02-14T02:37:33.109Z,3.89
2019-02-14T02:39:40.058Z,3.85
2019-02-14T02:41:47.502Z,3.87
2019-02-14T02:43:54.922Z,3.91
2019-02-14T02:46:02.002Z,3.90
2019-02-14T02:48:09.032Z,3.89
2019-02-14T02:50:16.066Z,3.88
2019-02-14T02:52:23.218Z,3.88
2019-02-14T02:54:30.211Z,3.86
2019-02-14T02:56:37.343Z,3.89
2019-02-14T02:58:44.422Z,3.88
2019-02-14T03:00:51.435Z,3.88
2019-02-14T03:02:58.484Z,3.88
2019-02-14T03:05:06.198Z,3.87
2019-02-14T03:07:13.629Z,3.89
2019-02-14T03:09:20.706Z,3.86
2019-02-14T03:11:27.753Z,3.86
2019-02-14T03:13:35.193Z,3.87
2019-02-14T03:15:42.230Z,3.89
2019-02-14T03:17:49.199Z,3.91
2019-02-14T03:19:56.259Z,3.91
2019-02-14T03:22:03.677Z,3.88
2019-02-14T03:24:11.046Z,3.88
2019-02-14T03:26:18.590Z,3.87
2019-02-14T03:28:26.012Z,3.85
2019-02-14T03:30:33.482Z,3.88
2019-02-14T03:32:40.916Z,3.86
2019-02-14T03:34:48.252Z,3.88
2019-02-14T03:36:55.752Z,3.88
2019-02-14T03:39:04.016Z,3.88
2019-02-14T03:41:11.511Z,3.85
2019-02-14T03:43:19.093Z,3.85
2019-02-14T03:45:26.688Z,3.83
2019-02-14T03:47:33.844Z,3.84
2019-02-14T03:49:41.028Z,3.86
2019-02-14T03:51:48.089Z,3.86
2019-02-14T03:53:55.151Z,3.87
2019-02-14T03:56:02.574Z,3.86
2019-02-14T03:58:10.087Z,3.84
2019-02-14T04:00:17.624Z,3.82
2019-02-14T04:02:25.014Z,3.85
2019-02-14T04:04:32.425Z,3.84
2019-02-14T04:06:39.788Z,3.87
2019-02-14T04:08:46.738Z,3.87
2019-02-14T04:10:54.424Z,3.87
2019-02-14T04:13:01.823Z,3.86
2019-02-14T04:15:11.817Z,3.88
2019-02-14T04:17:19.231Z,3.86
2019-02-14T04:19:26.692Z,3.86
2019-02-14T04:21:34.389Z,3.85
2019-02-14T04:23:43.110Z,3.87
2019-02-14T04:25:50.508Z,3.85
2019-02-14T04:27:58.024Z,3.87
2019-02-14T04:30:07.495Z,3.84
2019-02-14T04:32:14.871Z,3.85
2019-02-14T04:34:22.215Z,3.84
2019-02-14T04:36:35.900Z,3.86
2019-02-14T04:38:38.273Z,3.86
2019-02-14T04:40:45.543Z,3.87
2019-02-14T04:42:53.038Z,3.91
2019-02-14T04:45:00.474Z,3.90
2019-02-14T04:47:07.651Z,3.90
2019-02-14T04:49:15.071Z,3.88
2019-02-14T04:51:22.491Z,3.88
2019-02-14T04:53:29.975Z,3.86
2019-02-14T04:55:39.105Z,3.84
2019-02-14T04:57:46.573Z,3.85
2019-02-14T04:59:54.095Z,3.82
2019-02-14T05:02:01.581Z,3.86
2019-02-14T05:04:08.853Z,3.88
2019-02-14T05:06:15.959Z,3.83
2019-02-14T05:08:23.037Z,3.91
2019-02-14T05:10:30.034Z,3.87
2019-02-14T05:12:37.515Z,3.88
2019-02-14T05:14:45.020Z,3.87
2019-02-14T05:16:52.402Z,3.85
2019-02-14T05:18:59.585Z,3.87
2019-02-14T05:21:06.960Z,3.86
2019-02-14T05:23:14.379Z,3.85
2019-02-14T05:25:21.716Z,3.86
2019-02-14T05:27:29.135Z,3.86
2019-02-14T05:29:36.158Z,3.91
2019-02-14T05:31:43.263Z,3.93
2019-02-14T05:33:50.190Z,3.88
2019-02-14T05:35:57.220Z,3.83
2019-02-14T05:38:04.331Z,3.87
2019-02-14T05:40:12.484Z,3.85
2019-02-14T05:42:19.623Z,3.86
2019-02-14T05:44:26.708Z,3.86
2019-02-14T05:46:33.794Z,3.89
2019-02-14T05:48:40.783Z,3.83
2019-02-14T05:50:47.869Z,3.83
2019-02-14T05:52:55.147Z,3.86
2019-02-14T05:55:02.515Z,3.83
2019-02-14T05:57:09.982Z,3.84
2019-02-14T05:59:17.011Z,3.87
2019-02-14T06:01:24.812Z,3.86
2019-02-14T06:03:31.933Z,3.86
2019-02-14T06:05:39.394Z,3.86
2019-02-14T06:07:46.967Z,3.84
2019-02-14T06:09:54.463Z,3.83
2019-02-14T06:12:01.992Z,3.84
2019-02-14T06:14:09.469Z,3.82
2019-02-14T06:16:16.858Z,3.83
2019-02-14T06:18:24.311Z,3.83
2019-02-14T06:20:31.752Z,3.83
2019-02-14T06:22:39.006Z,3.81
2019-02-14T06:24:46.457Z,3.81
2019-02-14T06:26:53.901Z,3.83
2019-02-14T06:29:01.472Z,3.83
2019-02-14T06:31:08.904Z,3.80
2019-02-14T06:33:16.301Z,3.84
2019-02-14T06:35:23.741Z,3.80
2019-02-14T06:37:31.018Z,3.80
2019-02-14T06:39:38.478Z,3.82
2019-02-14T06:41:45.972Z,3.85
2019-02-14T06:43:53.415Z,3.83
2019-02-14T06:46:00.846Z,3.85
2019-02-14T06:48:08.693Z,3.86
2019-02-14T06:50:16.026Z,3.88
2019-02-14T06:52:23.420Z,3.89
2019-02-14T06:54:30.963Z,3.88
2019-02-14T06:56:38.426Z,3.89
2019-02-14T06:58:45.891Z,3.89
2019-02-14T07:00:53.457Z,3.91
2019-02-14T07:03:00.952Z,3.93
2019-02-14T07:05:08.994Z,3.94
2019-02-14T07:07:18.556Z,3.92
2019-02-14T07:09:25.617Z,3.95
2019-02-14T07:11:33.029Z,3.94
2019-02-14T07:13:40.487Z,3.96
2019-02-14T07:15:47.908Z,3.96
2019-02-14T07:17:55.251Z,3.99
2019-02-14T07:20:02.635Z,4.01
2019-02-14T07:22:10.127Z,3.98
2019-02-14T07:24:17.587Z,4.01
2019-02-14T07:26:24.999Z,4.01
2019-02-14T07:28:34.355Z,4.05
2019-02-14T07:30:41.683Z,4.07
2019-02-14T07:32:49.014Z,4.05
2019-02-14T07:34:57.023Z,4.10
2019-02-14T07:37:04.486Z,4.09
2019-02-14T07:39:11.989Z,4.10
2019-02-14T07:41:19.782Z,4.13
2019-02-14T07:43:28.181Z,4.13
2019-02-14T07:45:35.630Z,4.13
2019-02-14T07:47:43.146Z,4.17
2019-02-14T07:49:50.589Z,4.19
2019-02-14T07:51:57.945Z,4.24
2019-02-14T07:54:05.448Z,4.23
2019-02-14T07:56:12.987Z,4.25
2019-02-14T07:58:20.342Z,4.25
2019-02-14T08:00:27.689Z,4.25
2019-02-14T08:02:35.175Z,4.26
2019-02-14T08:04:42.665Z,4.29
2019-02-14T08:06:50.124Z,4.30
2019-02-14T08:08:57.635Z,4.29
2019-02-14T08:11:04.979Z,4.30
2019-02-14T08:13:12.469Z,4.30
2019-02-14T08:15:19.877Z,4.31
2019-02-14T08:17:27.999Z,4.31
2019-02-14T08:19:35.447Z,4.30
2019-02-14T08:21:42.971Z,4.30
2019-02-14T08:23:50.519Z,4.30
2019-02-14T08:25:58.013Z,4.31
2019-02-14T08:28:05.544Z,4.29
2019-02-14T08:30:15.231Z,4.30
2019-02-14T08:32:22.641Z,4.32
2019-02-14T08:34:30.084Z,4.34
2019-02-14T08:36:37.472Z,4.39
2019-02-14T08:38:44.990Z,4.41
2019-02-14T08:40:52.445Z,4.44
2019-02-14T08:43:00.260Z,4.46
2019-02-14T08:45:09.191Z,4.50
2019-02-14T08:47:16.609Z,4.50
2019-02-14T08:49:23.995Z,4.53
2019-02-14T08:51:32.645Z,4.53
2019-02-14T08:53:40.234Z,4.58
2019-02-14T08:55:47.662Z,4.58
2019-02-14T08:57:55.271Z,4.57
2019-02-14T09:00:02.687Z,4.58
2019-02-14T09:02:10.271Z,4.53
2019-02-14T09:04:17.820Z,4.57
2019-02-14T09:06:25.340Z,4.56
2019-02-14T09:08:32.795Z,4.58
2019-02-14T09:10:40.175Z,4.55
2019-02-14T09:12:47.580Z,4.54
2019-02-14T09:14:54.977Z,4.57
2019-02-14T09:17:02.405Z,4.57
2019-02-14T09:19:09.814Z,4.58
2019-02-14T09:21:17.401Z,4.61
2019-02-14T09:23:24.896Z,4.63
2019-02-14T09:25:32.432Z,4.65
2019-02-14T09:27:40.032Z,4.68
2019-02-14T09:29:47.989Z,4.75
2019-02-14T09:31:55.420Z,4.80
2019-02-14T09:34:02.524Z,4.85
2019-02-14T09:36:09.872Z,4.82
2019-02-14T09:38:17.749Z,4.84
2019-02-14T09:40:25.202Z,4.88
2019-02-14T09:42:32.628Z,4.88
2019-02-14T09:44:40.146Z,4.94
2019-02-14T09:46:47.711Z,5.00
2019-02-14T09:48:55.114Z,4.95
2019-02-14T09:51:02.615Z,4.91
2019-02-14T09:53:10.022Z,4.95
2019-02-14T09:55:17.424Z,4.99
2019-02-14T09:57:24.727Z,4.98
2019-02-14T09:59:32.320Z,5.00
2019-02-14T10:01:39.676Z,5.00
2019-02-14T10:03:47.150Z,5.06
2019-02-14T10:05:54.483Z,5.11
2019-02-14T10:08:01.865Z,5.16
2019-02-14T10:10:12.514Z,5.20
2019-02-14T10:12:19.908Z,5.17
2019-02-14T10:14:27.416Z,5.24
2019-02-14T10:16:34.753Z,5.26
2019-02-14T10:18:42.281Z,5.27
2019-02-14T10:20:49.649Z,5.22
2019-02-14T10:22:57.171Z,5.25
2019-02-14T10:25:04.872Z,5.32
2019-02-14T10:27:12.288Z,5.32
2019-02-14T10:29:19.746Z,5.36
2019-02-14T10:31:27.254Z,5.42
2019-02-14T10:33:34.705Z,5.45
2019-02-14T10:35:42.172Z,5.44
2019-02-14T10:37:50.234Z,5.48
2019-02-14T10:39:58.149Z,5.45
2019-02-14T10:42:06.061Z,5.52
2019-02-14T10:44:14.308Z,5.50
2019-02-14T10:46:21.946Z,5.52
2019-02-14T10:48:29.332Z,5.56
2019-02-14T10:50:37.077Z,5.56
2019-02-14T10:52:44.707Z,5.56
2019-02-14T10:54:52.149Z,5.69
2019-02-14T10:56:59.625Z,5.81
2019-02-14T10:59:07.206Z,5.81
2019-02-14T11:01:14.607Z,5.87
2019-02-14T11:03:22.377Z,5.81
2019-02-14T11:05:29.874Z,5.80
2019-02-14T11:07:37.324Z,5.80
2019-02-14T11:09:44.803Z,5.78
2019-02-14T11:11:52.119Z,5.73
2019-02-14T11:13:59.493Z,5.71
2019-02-14T11:16:09.614Z,5.70
2019-02-14T11:18:16.766Z,5.72
2019-02-14T11:20:24.139Z,5.82
2019-02-14T11:22:31.755Z,5.91
2019-02-14T11:24:39.265Z,6.13
2019-02-14T11:26:46.789Z,6.14
2019-02-14T11:28:54.396Z,6.10
2019-02-14T11:31:01.730Z,6.18
2019-02-14T11:33:09.374Z,6.20
2019-02-14T11:35:16.762Z,6.11
2019-02-14T11:37:25.777Z,6.17
2019-02-14T11:39:33.302Z,6.28
2019-02-14T11:41:40.537Z,6.12
2019-02-14T11:43:47.961Z,6.07
2019-02-14T11:45:55.434Z,6.06
2019-02-14T11:48:02.884Z,5.96
2019-02-14T11:50:11.720Z,5.95
2019-02-14T11:52:19.410Z,5.99
2019-02-14T11:54:26.871Z,6.10
2019-02-14T11:56:34.354Z,6.15
2019-02-14T11:58:41.517Z,6.16
2019-02-14T12:00:48.920Z,6.23
2019-02-14T12:02:56.662Z,6.39
2019-02-14T12:05:04.232Z,6.35
2019-02-14T12:07:11.623Z,6.34
2019-02-14T12:09:19.272Z,6.29
2019-02-14T12:11:26.924Z,6.25
2019-02-14T12:13:35.044Z,6.21
2019-02-14T12:15:42.552Z,6.25
2019-02-14T12:17:49.935Z,6.24
2019-02-14T12:19:57.454Z,6.23
2019-02-14T12:22:05.524Z,6.34
2019-02-14T12:24:13.567Z,6.44
2019-02-14T12:26:21.612Z,6.61
2019-02-14T12:28:29.590Z,6.63
2019-02-14T12:30:36.882Z,6.70
2019-02-14T12:32:44.641Z,6.69
2019-02-14T12:34:52.563Z,6.68
2019-02-14T12:37:03.194Z,6.78
2019-02-14T12:39:11.655Z,7.10
2019-02-14T12:41:19.338Z,6.99
2019-02-14T12:43:26.608Z,7.03
2019-02-14T12:45:34.282Z,6.95
2019-02-14T12:47:42.026Z,6.99
2019-02-14T12:49:49.501Z,6.97
2019-02-14T12:51:57.069Z,6.96
2019-02-14T12:54:04.513Z,6.88
2019-02-14T12:56:12.173Z,6.80
2019-02-14T12:58:19.704Z,6.90
2019-02-14T13:00:27.258Z,6.93
2019-02-14T13:02:34.697Z,7.17
2019-02-14T13:04:42.227Z,7.22
2019-02-14T13:06:49.910Z,7.00
2019-02-14T13:08:57.724Z,6.97
2019-02-14T13:11:05.334Z,6.95
2019-02-14T13:13:13.239Z,6.79
2019-02-14T13:15:22.303Z,6.65
2019-02-14T13:17:29.758Z,6.73
2019-02-14T13:19:37.170Z,6.82
2019-02-14T13:21:44.713Z,6.97
2019-02-14T13:23:52.554Z,6.90
2019-02-14T13:25:59.960Z,6.84
2019-02-14T13:28:07.585Z,6.89
2019-02-14T13:30:21.044Z,6.84
2019-02-14T13:32:28.553Z,6.77
2019-02-14T13:34:36.106Z,6.69
2019-02-14T13:36:43.620Z,6.78
2019-02-14T13:38:51.336Z,6.99
2019-02-14T13:40:58.794Z,6.84
2019-02-14T13:43:06.860Z,6.74
2019-02-14T13:45:16.362Z,6.84
2019-02-14T13:47:23.824Z,6.79
2019-02-14T13:49:32.796Z,6.66
2019-02-14T13:51:40.320Z,6.62
2019-02-14T13:53:47.748Z,6.59
2019-02-14T13:55:55.269Z,6.66
2019-02-14T13:58:02.794Z,6.56
2019-02-14T14:00:15.844Z,6.47
2019-02-14T14:02:23.309Z,6.44
2019-02-14T14:04:30.723Z,6.38
2019-02-14T14:06:38.237Z,6.33
2019-02-14T14:08:45.743Z,6.28
2019-02-14T14:10:53.123Z,6.21
2019-02-14T14:13:00.547Z,6.20
2019-02-14T14:15:08.725Z,6.14
2019-02-14T14:17:16.262Z,6.09
2019-02-14T14:19:23.661Z,6.07
2019-02-14T14:21:31.114Z,6.08
2019-02-14T14:23:38.603Z,6.09
2019-02-14T14:25:46.048Z,6.06
2019-02-14T14:27:53.447Z,6.01
2019-02-14T14:30:00.903Z,6.06
2019-02-14T14:32:08.319Z,6.06
2019-02-14T14:34:15.645Z,6.10
2019-02-14T14:36:23.066Z,6.07
2019-02-14T14:38:30.456Z,6.04
2019-02-14T14:40:37.919Z,6.05
2019-02-14T14:43:05.341Z,6.00
2019-02-14T14:45:15.311Z,6.06
2019-02-14T14:47:24.438Z,6.07
2019-02-14T14:49:31.781Z,6.01
2019-02-14T14:51:39.209Z,6.02
2019-02-14T14:53:46.677Z,6.02
2019-02-14T14:55:54.193Z,5.93
2019-02-14T14:58:01.663Z,5.91
2019-02-14T15:00:09.763Z,5.86
2019-02-14T15:02:17.281Z,5.86
2019-02-14T15:04:25.497Z,5.85
2019-02-14T15:06:32.936Z,5.77
2019-02-14T15:08:40.425Z,5.74
2019-02-14T15:10:50.536Z,5.68
2019-02-14T15:12:57.957Z,5.67
2019-02-14T15:15:08.312Z,5.57
2019-02-14T15:17:18.888Z,5.63
2019-02-14T15:19:26.309Z,5.58
2019-02-14T15:21:37.749Z,5.52
2019-02-14T15:23:46.413Z,5.51
2019-02-14T15:25:56.876Z,5.47
2019-02-14T15:28:04.418Z,5.47
2019-02-14T15:30:11.817Z,5.48
2019-02-14T15:32:19.826Z,5.46
2019-02-14T15:34:31.844Z,5.38
2019-02-14T15:36:40.571Z,5.31
2019-02-14T15:38:50.351Z,5.33
2019-02-14T15:41:01.340Z,5.24
2019-02-14T15:43:10.829Z,5.25
2019-02-14T15:45:39.936Z,5.23
2019-02-14T15:47:50.515Z,5.23
2019-02-14T15:49:58.391Z,5.10
2019-02-14T15:52:07.759Z,5.16
2019-02-14T15:54:21.011Z,5.11
2019-02-14T15:56:31.592Z,5.06
2019-02-14T15:58:42.045Z,5.04
2019-02-14T16:00:51.672Z,4.97
2019-02-14T16:03:03.808Z,4.87
2019-02-14T16:05:12.588Z,4.72
2019-02-14T16:07:22.101Z,4.71
2019-02-14T16:09:29.857Z,4.71
2019-02-14T16:11:39.168Z,4.61
2019-02-14T16:13:48.030Z,4.60
2019-02-14T16:15:58.791Z,4.61
2019-02-14T16:18:06.914Z,4.52
2019-02-14T16:20:15.775Z,4.46
2019-02-14T16:22:30.001Z,4.39
2019-02-14T16:24:34.531Z,4.44
2019-02-14T16:26:42.827Z,4.52
2019-02-14T16:28:50.551Z,4.63
2019-02-14T16:30:58.433Z,4.70
2019-02-14T16:33:06.383Z,4.40
2019-02-14T16:35:14.296Z,4.40
2019-02-14T16:37:21.936Z,4.33
2019-02-14T16:39:31.109Z,4.26
2019-02-14T16:41:39.051Z,4.34
2019-02-14T16:43:46.788Z,4.24
2019-02-14T16:45:54.430Z,4.13
2019-02-14T16:48:02.169Z,4.12
2019-02-14T16:50:10.500Z,4.17
2019-02-14T16:52:18.147Z,4.14
2019-02-14T16:54:25.874Z,4.17
2019-02-14T16:56:33.263Z,4.17
2019-02-14T16:58:41.163Z,4.24
2019-02-14T17:00:48.928Z,4.48
2019-02-14T17:02:56.682Z,4.41
2019-02-14T17:05:04.610Z,4.45
2019-02-14T17:07:12.430Z,4.50
2019-02-14T17:09:20.011Z,4.61
2019-02-14T17:11:27.758Z,4.71
2019-02-14T17:13:35.234Z,4.74
2019-02-14T17:15:42.813Z,4.80
2019-02-14T17:17:50.525Z,4.82
2019-02-14T17:19:58.078Z,4.76
2019-02-14T17:22:05.675Z,4.74
2019-02-14T17:24:13.566Z,4.70
2019-02-14T17:26:21.437Z,4.73
2019-02-14T17:28:29.003Z,4.77
2019-02-14T17:30:36.838Z,4.77
2019-02-14T17:32:44.560Z,4.77
2019-02-14T17:34:52.033Z,4.72
2019-02-14T17:36:59.668Z,4.80
2019-02-14T17:39:07.832Z,4.74
2019-02-14T17:41:15.371Z,4.73
2019-02-14T17:43:23.192Z,4.81
2019-02-14T17:45:31.010Z,4.82
2019-02-14T17:47:38.467Z,4.81
2019-02-14T17:49:46.151Z,4.84
2019-02-14T17:51:53.771Z,4.92
2019-02-14T17:54:01.804Z,4.97
2019-02-14T17:56:09.439Z,4.95
2019-02-14T17:58:17.281Z,4.96
2019-02-14T18:00:24.898Z,4.94
2019-02-14T18:02:32.298Z,4.93
2019-02-14T18:04:39.955Z,4.92
2019-02-14T18:06:47.780Z,4.95
2019-02-14T18:08:55.568Z,4.98
2019-02-14T18:11:03.009Z,5.00
2019-02-14T18:13:10.603Z,4.99
2019-02-14T18:15:18.241Z,5.08
2019-02-14T18:17:25.947Z,5.11
2019-02-14T18:19:33.612Z,5.09
2019-02-14T18:21:41.238Z,5.07
2019-02-14T18:23:49.101Z,5.04
2019-02-14T18:25:56.850Z,5.03
2019-02-14T18:28:04.567Z,5.08
2019-02-14T18:30:12.843Z,5.11
2019-02-14T18:32:20.610Z,5.11
2019-02-14T18:34:28.568Z,5.10
2019-02-14T18:36:37.462Z,5.12
2019-02-14T18:38:45.149Z,5.15
2019-02-14T18:40:52.970Z,5.16
2019-02-14T18:43:00.588Z,5.23
2019-02-14T18:45:11.486Z,5.22
2019-02-14T18:47:19.544Z,5.22
2019-02-14T18:49:27.188Z,5.22
2019-02-14T18:51:35.053Z,5.21
2019-02-14T18:53:42.515Z,5.19
2019-02-14T18:55:50.263Z,5.24
2019-02-14T18:57:57.732Z,5.26
2019-02-14T19:00:06.688Z,5.27
2019-02-14T19:02:14.319Z,5.28
2019-02-14T19:04:21.750Z,5.30
2019-02-14T19:06:29.340Z,5.31
2019-02-14T19:08:37.421Z,5.34
2019-02-14T19:10:45.170Z,5.34
2019-02-14T19:12:52.842Z,5.36
2019-02-14T19:15:00.579Z,5.34
2019-02-14T19:17:08.167Z,5.38
2019-02-14T19:19:15.894Z,5.36
2019-02-14T19:21:23.491Z,5.38
2019-02-14T19:23:31.153Z,5.36
2019-02-14T19:25:38.802Z,5.38
2019-02-14T19:27:46.764Z,5.39
2019-02-14T19:29:54.781Z,5.35
2019-02-14T19:32:03.125Z,5.38
2019-02-14T19:34:11.035Z,5.37
2019-02-14T19:36:18.930Z,5.35
2019-02-14T19:38:26.482Z,5.38
2019-02-14T19:40:34.939Z,5.38
2019-02-14T19:42:42.819Z,5.41
2019-02-14T19:44:50.686Z,5.40
2019-02-14T19:47:17.764Z,5.40
2019-02-14T19:49:25.428Z,5.38
2019-02-14T19:51:32.948Z,5.38
2019-02-14T19:53:40.626Z,5.39
2019-02-14T19:55:48.187Z,5.36
2019-02-14T19:57:55.769Z,5.34
2019-02-14T20:00:03.627Z,5.34
2019-02-14T20:02:11.462Z,5.36
2019-02-14T20:04:20.269Z,5.33
2019-02-14T20:06:27.917Z,5.39
2019-02-14T20:08:36.142Z,5.38
2019-02-14T20:10:45.556Z,5.38
2019-02-14T20:12:54.665Z,5.40
2019-02-14T20:15:03.045Z,5.36
2019-02-14T20:17:11.169Z,5.38
2019-02-14T20:19:19.980Z,5.39
2019-02-14T20:21:28.424Z,5.33
2019-02-14T20:23:39.723Z,5.31
2019-02-14T20:25:48.743Z,5.36
2019-02-14T20:27:56.850Z,5.35
2019-02-14T20:30:05.305Z,5.33
2019-02-14T20:32:13.303Z,5.30
2019-02-14T20:34:21.019Z,5.32
2019-02-14T20:36:29.180Z,5.28
2019-02-14T20:38:36.835Z,5.30
2019-02-14T20:40:44.622Z,5.32
2019-02-14T20:42:52.303Z,5.34
2019-02-14T20:44:59.825Z,5.31
2019-02-14T20:47:07.705Z,5.31
2019-02-14T20:49:16.272Z,5.31
2019-02-14T20:51:24.173Z,5.29
2019-02-14T20:53:31.635Z,5.36
2019-02-14T20:55:39.693Z,5.31
2019-02-14T20:57:47.659Z,5.37
2019-02-14T20:59:55.504Z,5.31
2019-02-14T21:02:02.926Z,5.31
2019-02-14T21:04:10.345Z,5.35
2019-02-14T21:06:18.063Z,5.35
2019-02-14T21:08:25.651Z,5.36
2019-02-14T21:10:33.430Z,5.35
2019-02-14T21:12:41.012Z,5.33
2019-02-14T21:14:48.635Z,5.35
2019-02-14T21:16:56.366Z,5.36
2019-02-14T21:19:04.008Z,5.34
2019-02-14T21:21:12.041Z,5.35
2019-02-14T21:23:20.189Z,5.33
2019-02-14T21:25:28.120Z,5.33
2019-02-14T21:27:35.708Z,5.29
2019-02-14T21:29:43.505Z,5.32
2019-02-14T21:31:50.945Z,5.32
2019-02-14T21:33:58.492Z,5.30
2019-02-14T21:36:06.247Z,5.29
2019-02-14T21:38:13.840Z,5.29
2019-02-14T21:40:21.185Z,5.28
2019-02-14T21:42:29.867Z,5.27
2019-02-14T21:44:37.815Z,5.22
2019-02-14T21:46:45.471Z,5.22
2019-02-14T21:48:53.360Z,5.20
2019-02-14T21:51:01.176Z,5.25
2019-02-14T21:53:09.199Z,5.28
2019-02-14T21:55:17.453Z,5.28
2019-02-14T21:57:25.408Z,5.26
2019-02-14T21:59:33.585Z,5.25
2019-02-14T22:01:41.384Z,5.22
2019-02-14T22:03:49.429Z,5.20
2019-02-14T22:05:57.143Z,5.19
2019-02-14T22:08:05.016Z,5.19
2019-02-14T22:10:13.182Z,5.17
2019-02-14T22:12:39.158Z,5.16
2019-02-14T22:14:30.306Z,5.21
2019-02-14T22:16:37.809Z,5.25
2019-02-14T22:18:45.328Z,5.26
2019-02-14T22:20:52.874Z,5.27
2019-02-14T22:23:00.251Z,5.24
2019-02-14T22:25:08.471Z,5.18
2019-02-14T22:27:15.970Z,5.20
2019-02-14T22:29:24.598Z,5.23
2019-02-14T22:31:32.135Z,5.19
2019-02-14T22:33:39.744Z,5.18
2019-02-14T22:35:47.178Z,5.24
2019-02-14T22:37:54.630Z,5.27
2019-02-14T22:40:02.188Z,5.31
2019-02-14T22:42:09.771Z,5.31
2019-02-14T22:44:17.275Z,5.29
2019-02-14T22:46:24.909Z,5.32
2019-02-14T22:48:32.359Z,5.29
2019-02-14T22:50:39.932Z,5.23
2019-02-14T22:52:47.900Z,5.25
2019-02-14T22:54:55.498Z,5.28
2019-02-14T22:57:03.248Z,5.28
2019-02-14T22:59:10.704Z,5.28
2019-02-14T23:01:18.093Z,5.31
2019-02-14T23:03:25.671Z,5.34
2019-02-14T23:05:32.985Z,5.36
2019-02-14T23:07:40.352Z,5.29
2019-02-14T23:09:48.246Z,5.35
2019-02-14T23:11:55.779Z,5.31
2019-02-14T23:14:03.159Z,5.32
2019-02-14T23:16:10.687Z,5.28
2019-02-14T23:18:18.108Z,5.31
2019-02-14T23:20:25.374Z,5.31
2019-02-14T23:22:32.766Z,5.25
2019-02-14T23:24:40.264Z,5.30
2019-02-14T23:26:47.712Z,5.28
2019-02-14T23:28:55.151Z,5.31
2019-02-14T23:31:02.524Z,5.26
2019-02-14T23:33:10.202Z,5.29
2019-02-14T23:35:17.876Z,5.26
2019-02-14T23:37:25.586Z,5.24
2019-02-14T23:39:33.289Z,5.28
2019-02-14T23:41:40.969Z,5.26
2019-02-14T23:43:48.764Z,5.24
2019-02-14T23:45:56.765Z,5.24
2019-02-14T23:48:04.564Z,5.23
2019-02-14T23:50:12.419Z,5.21
2019-02-14T23:52:20.128Z,5.22
2019-02-14T23:54:27.823Z,5.24
2019-02-14T23:56:35.635Z,5.23
2019-02-14T23:58:43.461Z,5.19
